Time;durP1;ratioP1;P1;durP2;ratioP2;P2;SDS_P1;SDS_P2;PMS_P1;PMS_P2;Temp;Humidity;BMP_temperature;BMP_pressure;BME280_temperature;BME280_humidity;BME280_pressure;Samples;Min_cycle;Max_cycle;Signal;HPM_P1;HPM_P2
2021/04/14 00:02:36;;;;;;;4.18;2.40;;;5.40;60.50;;;;;;5104489;28;27607;-61
2021/04/14 00:05:39;;;;;;;3.88;2.55;;;5.40;60.50;;;;;;5104993;28;27467;-58
2021/04/14 00:09:01;;;;;;;9.32;5.90;;;5.40;60.70;;;;;;5104854;28;27405;-57
2021/04/14 00:12:02;;;;;;;10.48;5.25;;;5.30;60.70;;;;;;5105107;28;27397;-58
2021/04/14 00:15:12;;;;;;;7.95;4.68;;;5.20;60.70;;;;;;5104954;28;27451;-58
2021/04/14 00:18:34;;;;;;;7.32;3.90;;;5.20;60.90;;;;;;5104567;28;27474;-59
2021/04/14 00:21:43;;;;;;;8.52;4.60;;;5.20;61.00;;;;;;5105092;28;27462;-58
2021/04/14 00:25:00;;;;;;;8.73;4.45;;;5.10;61.00;;;;;;5103415;28;27528;-59
2021/04/14 00:28:29;;;;;;;9.38;4.53;;;5.10;61.00;;;;;;5101643;28;27965;-56
2021/04/14 00:31:46;;;;;;;7.28;3.97;;;5.10;61.10;;;;;;5103007;28;27570;-57
2021/04/14 00:35:01;;;;;;;7.00;4.43;;;5.00;61.10;;;;;;5104686;28;27350;-58
2021/04/14 00:38:16;;;;;;;8.63;4.40;;;5.00;61.10;;;;;;5104209;28;27381;-57
2021/04/14 00:41:24;;;;;;;8.93;3.70;;;5.00;61.00;;;;;;5104104;28;27348;-58
2021/04/14 00:44:24;;;;;;;7.80;3.92;;;4.90;61.10;;;;;;5103488;28;27436;-58
2021/04/14 00:47:25;;;;;;;7.30;3.72;;;4.90;61.30;;;;;;5104737;28;27434;-56
2021/04/14 00:50:30;;;;;;;5.03;3.33;;;4.80;61.40;;;;;;5103649;27;27419;-57
2021/04/14 00:53:35;;;;;;;5.78;3.05;;;4.80;61.40;;;;;;5104597;28;27435;-58
2021/04/14 00:56:50;;;;;;;5.45;3.47;;;4.70;62.30;;;;;;5103856;28;27490;-55
2021/04/14 00:59:59;;;;;;;6.30;3.60;;;4.70;61.70;;;;;;5103526;28;27497;-57
2021/04/14 01:03:02;;;;;;;6.57;2.88;;;4.70;61.70;;;;;;5103152;28;27407;-57
2021/04/14 01:06:09;;;;;;;5.53;3.40;;;4.60;61.80;;;;;;5102617;28;27553;-57
2021/04/14 01:09:14;;;;;;;4.60;2.78;;;4.60;62.60;;;;;;5104069;28;27442;-57
2021/04/14 01:12:29;;;;;;;4.32;2.75;;;4.60;61.80;;;;;;5102481;28;27461;-54
2021/04/14 01:15:35;;;;;;;8.40;3.30;;;4.50;62.00;;;;;;5103517;28;27545;-58
2021/04/14 01:18:43;;;;;;;4.45;3.05;;;4.50;62.10;;;;;;5103160;28;27957;-58
2021/04/14 01:21:40;;;;;;;5.43;3.00;;;4.40;62.00;;;;;;5100585;28;27407;-57
2021/04/14 01:25:05;;;;;;;3.38;2.53;;;4.40;62.00;;;;;;5104168;28;27402;-57
2021/04/14 01:28:24;;;;;;;6.95;2.65;;;4.40;62.00;;;;;;5103724;28;27316;-57
2021/04/14 01:31:39;;;;;;;7.50;2.58;;;4.40;62.00;;;;;;5103928;28;27841;-56
2021/04/14 01:35:06;;;;;;;4.30;2.53;;;4.30;62.10;;;;;;5103576;28;27493;-56
2021/04/14 01:38:11;;;;;;;4.10;2.50;;;4.30;62.00;;;;;;5103485;28;27398;-57
2021/04/14 01:41:13;;;;;;;3.22;2.13;;;4.30;62.00;;;;;;5103632;28;27410;-58
2021/04/14 01:44:18;;;;;;;5.15;2.50;;;4.30;62.00;;;;;;5103788;28;27446;-57
2021/04/14 01:47:43;;;;;;;4.60;2.45;;;4.20;62.10;;;;;;5103441;28;27513;-58
2021/04/14 01:50:48;;;;;;;5.43;2.90;;;4.20;62.10;;;;;;5102018;28;27435;-57
2021/04/14 01:54:04;;;;;;;3.92;2.22;;;4.20;62.10;;;;;;5099143;28;27604;-56
2021/04/14 01:57:10;;;;;;;4.60;2.80;;;4.10;62.10;;;;;;5103090;28;27456;-58
2021/04/14 02:00:20;;;;;;;4.97;2.70;;;4.10;62.10;;;;;;5103340;28;27459;-59
2021/04/14 02:03:45;;;;;;;8.23;2.53;;;4.10;62.20;;;;;;5103304;28;27375;-57
2021/04/14 02:07:11;;;;;;;2.92;2.20;;;4.00;62.20;;;;;;5102826;28;27565;-56
2021/04/14 02:10:37;;;;;;;3.88;2.63;;;4.00;62.30;;;;;;5102397;28;27923;-56
2021/04/14 02:13:55;;;;;;;3.85;2.50;;;4.00;62.30;;;;;;5102826;28;27470;-57
2021/04/14 02:17:23;;;;;;;4.40;2.90;;;4.00;62.30;;;;;;5102500;28;27369;-57
2021/04/14 02:20:47;;;;;;;4.90;2.53;;;3.90;62.20;;;;;;5100681;28;27406;-55
2021/04/14 02:24:00;;;;;;;2.97;2.28;;;3.90;62.40;;;;;;5103031;28;27323;-58
2021/04/14 02:27:33;;;;;;;4.57;2.83;;;3.80;62.40;;;;;;5101650;28;27572;-58
2021/04/14 02:30:27;;;;;;;4.10;2.42;;;3.80;62.40;;;;;;5102305;28;27632;-57
2021/04/14 02:33:53;;;;;;;5.00;2.45;;;3.80;62.40;;;;;;5102762;28;27466;-57
2021/04/14 02:36:58;;;;;;;2.80;2.20;;;3.80;62.60;;;;;;5102265;28;27408;-57
2021/04/14 02:40:15;;;;;;;6.38;2.30;;;3.80;62.60;;;;;;5102756;28;27395;-58
2021/04/14 02:43:36;;;;;;;3.47;2.10;;;3.70;62.50;;;;;;5102394;28;27473;-58
2021/04/14 02:46:51;;;;;;;5.50;2.65;;;3.70;62.50;;;;;;5102553;28;27492;-58
2021/04/14 02:49:52;;;;;;;7.80;3.20;;;3.70;62.50;;;;;;5102693;28;27513;-58
2021/04/14 02:53:08;;;;;;;6.82;2.67;;;3.70;62.40;;;;;;5102768;28;27394;-57
2021/04/14 02:56:13;;;;;;;4.82;2.10;;;3.70;62.40;;;;;;5102209;28;27477;-57
2021/04/14 02:59:12;;;;;;;4.90;2.50;;;3.60;62.40;;;;;;5102559;28;27480;-57
2021/04/14 03:02:14;;;;;;;6.18;2.95;;;3.60;62.50;;;;;;5102385;28;27461;-57
2021/04/14 03:05:22;;;;;;;4.78;2.55;;;3.50;62.60;;;;;;5102528;28;27390;-57
2021/04/14 03:08:28;;;;;;;5.70;2.33;;;3.50;62.60;;;;;;5101485;28;27453;-58
2021/04/14 03:11:42;;;;;;;4.15;2.55;;;3.50;62.60;;;;;;5099129;28;27406;-57
2021/04/14 03:14:57;;;;;;;3.55;2.58;;;3.50;62.70;;;;;;5105367;28;27487;-54
2021/04/14 03:17:58;;;;;;;4.75;2.60;;;3.40;62.70;;;;;;5105078;28;27469;-58
2021/04/14 03:21:14;;;;;;;5.70;2.60;;;3.40;62.70;;;;;;5105769;28;27390;-57
2021/04/14 03:24:34;;;;;;;4.70;2.40;;;3.40;62.80;;;;;;5102269;28;27390;-56
2021/04/14 03:27:40;;;;;;;3.00;2.70;;;3.40;62.90;;;;;;5104855;28;27423;-57
2021/04/14 03:30:55;;;;;;;3.05;2.50;;;3.40;62.90;;;;;;5105556;28;27356;-56
2021/04/14 03:34:10;;;;;;;6.20;2.15;;;3.40;63.00;;;;;;5105086;28;27405;-57
2021/04/14 03:37:15;;;;;;;3.65;2.60;;;3.30;62.90;;;;;;5105408;28;27414;-56
2021/04/14 03:40:43;;;;;;;3.38;2.60;;;3.30;62.80;;;;;;5104922;28;27852;-57
2021/04/14 03:44:06;;;;;;;6.07;2.13;;;3.30;63.00;;;;;;5105645;28;27380;-57
2021/04/14 03:47:22;;;;;;;2.35;2.00;;;3.20;63.10;;;;;;5102354;28;27426;-55
2021/04/14 03:50:29;;;;;;;5.72;2.50;;;3.20;63.10;;;;;;5103264;27;27316;-57
2021/04/14 03:53:27;;;;;;;2.85;2.25;;;3.20;63.10;;;;;;5105233;28;27344;-57
2021/04/14 03:56:55;;;;;;;4.95;2.28;;;3.10;63.20;;;;;;5105327;28;27462;-60
2021/04/14 04:00:26;;;;;;;3.17;2.35;;;3.10;63.30;;;;;;5104709;28;27476;-57
2021/04/14 04:03:52;;;;;;;2.90;2.25;;;3.10;63.40;;;;;;5105310;28;27408;-57
2021/04/14 04:07:04;;;;;;;4.57;2.40;;;3.00;63.40;;;;;;5105060;28;28009;-59
2021/04/14 04:10:06;;;;;;;2.97;2.42;;;3.00;63.60;;;;;;5103365;28;27368;-57
2021/04/14 04:13:34;;;;;;;3.25;2.20;;;3.00;63.50;;;;;;5105212;28;27402;-57
2021/04/14 04:16:57;;;;;;;4.07;2.30;;;3.00;63.50;;;;;;5101388;28;27353;-57
2021/04/14 04:20:09;;;;;;;3.17;2.63;;;3.00;63.40;;;;;;5103378;28;27917;-57
2021/04/14 04:23:14;;;;;;;3.20;2.30;;;3.00;63.40;;;;;;5104253;28;27556;-55
2021/04/14 04:26:19;;;;;;;4.50;2.60;;;3.00;63.50;;;;;;5104262;28;27439;-57
2021/04/14 04:29:49;;;;;;;2.83;2.17;;;3.00;63.50;;;;;;5104074;28;27467;-57
2021/04/14 04:33:07;;;;;;;3.88;2.92;;;3.00;63.50;;;;;;5101483;28;27329;-55
2021/04/14 04:36:21;;;;;;;5.43;2.40;;;2.90;63.50;;;;;;5103526;28;27509;-57
2021/04/14 04:39:44;;;;;;;3.30;2.35;;;2.90;63.70;;;;;;5104012;28;27571;-58
2021/04/14 04:42:49;;;;;;;3.72;2.35;;;2.90;63.70;;;;;;5104837;28;27327;-57
2021/04/14 04:46:04;;;;;;;7.25;2.67;;;2.90;63.70;;;;;;5100362;28;27344;-57
2021/04/14 04:49:19;;;;;;;3.47;2.63;;;2.90;63.70;;;;;;5101867;28;27348;-57
2021/04/14 04:52:33;;;;;;;3.00;2.65;;;2.90;64.00;;;;;;5100404;28;27307;-58
2021/04/14 04:55:50;;;;;;;4.45;2.50;;;2.90;63.80;;;;;;5103985;28;27341;-57
2021/04/14 04:59:05;;;;;;;7.22;3.35;;;2.90;63.90;;;;;;5104078;28;27412;-57
2021/04/14 05:02:33;;;;;;;3.08;2.58;;;2.90;64.00;;;;;;5103774;28;27352;-59
2021/04/14 05:05:41;;;;;;;4.32;2.78;;;2.90;64.00;;;;;;5103572;28;27427;-55
2021/04/14 05:08:56;;;;;;;5.82;2.45;;;2.90;64.10;;;;;;5103808;28;27359;-56
2021/04/14 05:12:13;;;;;;;7.60;2.85;;;2.90;64.10;;;;;;5104550;28;27380;-56
2021/04/14 05:15:38;;;;;;;4.53;2.58;;;2.90;64.20;;;;;;5104365;28;27384;-54
2021/04/14 05:19:00;;;;;;;4.60;2.60;;;3.00;65.10;;;;;;5104180;28;27402;-58
2021/04/14 05:22:07;;;;;;;5.57;2.67;;;2.90;64.30;;;;;;5104682;28;27581;-56
2021/04/14 05:25:14;;;;;;;3.50;2.90;;;2.90;64.50;;;;;;5105071;28;27402;-56
2021/04/14 05:28:18;;;;;;;3.05;2.45;;;2.90;64.70;;;;;;5104806;28;27292;-56
2021/04/14 05:31:44;;;;;;;3.53;2.95;;;3.00;64.70;;;;;;5105102;28;27335;-58
2021/04/14 05:35:07;;;;;;;14.40;5.13;;;3.00;65.80;;;;;;5101225;28;27397;-56
2021/04/14 05:37:51;;;;;;;5.78;2.78;;;3.00;65.00;;;;;;5104659;28;27919;-59
2021/04/14 05:40:59;;;;;;;5.30;2.88;;;3.00;65.10;;;;;;5104200;28;27372;-56
2021/04/14 05:44:14;;;;;;;4.55;2.85;;;3.00;65.00;;;;;;5100643;28;27404;-55
2021/04/14 05:47:39;;;;;;;5.55;2.95;;;3.10;65.40;;;;;;5104189;28;27398;-57
2021/04/14 05:50:45;;;;;;;4.50;2.92;;;3.10;65.50;;;;;;5104826;28;27970;-57
2021/04/14 05:53:46;;;;;;;4.40;3.40;;;3.20;65.70;;;;;;5104052;28;27704;-57
2021/04/14 05:57:02;;;;;;;5.68;3.25;;;3.20;65.60;;;;;;5104509;28;27367;-57
2021/04/14 06:00:27;;;;;;;5.35;3.67;;;3.30;65.70;;;;;;5104244;28;27317;-58
2021/04/14 06:03:33;;;;;;;9.05;3.75;;;3.30;66.50;;;;;;5104512;28;27323;-57
2021/04/14 06:06:48;;;;;;;6.35;4.10;;;3.40;65.50;;;;;;5104507;28;27418;-57
2021/04/14 06:10:13;;;;;;;7.95;4.88;;;3.50;65.70;;;;;;5104069;28;27343;-57
2021/04/14 06:13:29;;;;;;;10.10;4.25;;;3.60;65.70;;;;;;5104656;28;27387;-58
2021/04/14 06:16:31;;;;;;;6.25;3.40;;;3.70;65.60;;;;;;5103506;28;27389;-57
2021/04/14 06:19:46;;;;;;;6.85;4.25;;;3.90;65.40;;;;;;5101533;28;27348;-57
2021/04/14 06:23:03;;;;;;;6.22;4.57;;;4.00;65.30;;;;;;5102929;28;27347;-57
2021/04/14 06:26:27;;;;;;;6.70;3.83;;;4.10;65.50;;;;;;5103929;28;27328;-58
2021/04/14 06:29:47;;;;;;;5.85;4.05;;;4.20;65.50;;;;;;5104349;28;27421;-57
2021/04/14 06:33:04;;;;;;;7.35;4.68;;;4.40;65.30;;;;;;5103613;28;27426;-56
2021/04/14 06:36:10;;;;;;;8.30;4.75;;;4.50;64.90;;;;;;5103175;28;27577;-58
2021/04/14 06:39:12;;;;;;;6.45;4.43;;;4.70;65.00;;;;;;5104434;28;27429;-58
2021/04/14 06:42:28;;;;;;;8.07;4.55;;;4.70;65.20;;;;;;5104035;28;27457;-57
2021/04/14 06:45:49;;;;;;;6.75;4.28;;;5.00;65.00;;;;;;5104078;28;27442;-57
2021/04/14 06:49:07;;;;;;;10.27;4.90;;;5.50;63.70;;;;;;5106028;27;26971;-57
2021/04/14 06:52:13;;;;;;;6.43;4.72;;;6.00;62.50;;;;;;5106505;28;27468;-58
2021/04/14 06:55:09;;;;;;;8.52;4.95;;;6.50;61.10;;;;;;5107663;28;27472;-58
2021/04/14 06:58:16;;;;;;;7.70;4.57;;;6.90;60.60;;;;;;5106994;28;27509;-58
2021/04/14 07:01:23;;;;;;;9.13;5.32;;;7.40;59.20;;;;;;5106692;28;27426;-57
2021/04/14 07:04:49;;;;;;;10.57;5.85;;;7.70;58.70;;;;;;5106612;28;27321;-58
2021/04/14 07:07:56;;;;;;;10.57;6.88;;;8.00;57.00;;;;;;5105773;28;27884;-58
2021/04/14 07:11:01;;;;;;;12.02;6.05;;;8.40;56.00;;;;;;5106961;28;27505;-58
2021/04/14 07:14:05;;;;;;;10.82;6.05;;;8.70;56.00;;;;;;5107163;28;27479;-58
2021/04/14 07:17:02;;;;;;;11.00;5.97;;;8.90;56.40;;;;;;5106278;28;27424;-59
2021/04/14 07:20:14;;;;;;;10.68;5.18;;;9.20;56.30;;;;;;5106236;28;27335;-58
2021/04/14 07:23:15;;;;;;;7.50;5.50;;;9.50;55.80;;;;;;5106302;28;27374;-58
2021/04/14 07:27:04;;;;;;;6.57;4.93;;;9.80;55.40;;;;;;5106613;28;27439;-58
2021/04/14 07:31:04;;;;;;;7.93;5.20;;;10.10;53.90;;;;;;5106232;28;27395;-59
2021/04/14 07:34:34;;;;;;;7.15;4.53;;;10.40;53.70;;;;;;5105284;27;27458;-59
2021/04/14 07:37:59;;;;;;;8.15;4.85;;;10.70;53.30;;;;;;5105664;28;27516;-58
2021/04/14 07:41:27;;;;;;;6.55;4.65;;;10.80;53.00;;;;;;5106290;28;27414;-58
2021/04/14 07:45:06;;;;;;;6.97;4.72;;;11.10;53.70;;;;;;5105998;28;27331;-59
2021/04/14 07:48:32;;;;;;;6.00;4.65;;;11.50;53.50;;;;;;5102262;28;27386;-59
2021/04/14 07:51:36;;;;;;;8.45;5.05;;;11.90;54.00;;;;;;5106378;28;27352;-60
2021/04/14 07:54:43;;;;;;;6.97;4.22;;;12.20;52.40;;;;;;5106593;28;27318;-59
2021/04/14 07:57:51;;;;;;;7.43;4.85;;;12.40;51.70;;;;;;5106014;28;27382;-59
2021/04/14 08:00:56;;;;;;;7.03;3.92;;;12.70;51.00;;;;;;5101963;28;27860;-59
2021/04/14 08:04:09;;;;;;;7.28;3.90;;;13.00;50.60;;;;;;5106409;28;27477;-59
2021/04/14 08:07:18;;;;;;;4.55;3.50;;;13.20;50.80;;;;;;5106051;28;27368;-59
2021/04/14 08:10:30;;;;;;;4.78;3.65;;;13.50;50.70;;;;;;5105808;28;27454;-59
2021/04/14 08:13:23;;;;;;;5.43;3.72;;;13.80;49.70;;;;;;5106382;28;27865;-59
2021/04/14 08:16:38;;;;;;;6.63;4.13;;;14.00;47.90;;;;;;5105152;28;27433;-61
2021/04/14 08:19:59;;;;;;;4.32;3.72;;;14.30;48.10;;;;;;5103942;28;27393;-60
2021/04/14 08:23:08;;;;;;;7.85;4.07;;;14.60;47.00;;;;;;5105511;28;27516;-59
2021/04/14 08:26:15;;;;;;;5.78;4.30;;;14.80;47.80;;;;;;5105475;28;27418;-60
2021/04/14 08:29:25;;;;;;;6.32;3.78;;;15.00;46.40;;;;;;5105877;28;27418;-60
2021/04/14 08:32:32;;;;;;;12.18;3.92;;;15.10;46.70;;;;;;5106106;28;27406;-60
2021/04/14 08:35:37;;;;;;;5.00;3.03;;;15.10;46.60;;;;;;5105433;28;27414;-60
2021/04/14 08:38:28;;;;;;;6.40;3.33;;;15.00;46.60;;;;;;5106071;28;27319;-62
2021/04/14 08:41:51;;;;;;;6.07;3.65;;;15.10;47.00;;;;;;5105396;28;27505;-60
2021/04/14 08:45:26;;;;;;;7.65;3.75;;;15.40;48.40;;;;;;5087387;28;27427;-60
2021/04/14 08:48:31;;;;;;;4.65;3.20;;;15.00;47.70;;;;;;5105684;28;27571;-63
2021/04/14 08:51:40;;;;;;;4.55;3.10;;;14.70;50.60;;;;;;5087530;28;27419;-59
2021/04/14 08:54:45;;;;;;;11.73;2.97;;;14.30;49.80;;;;;;5105277;28;27403;-60
2021/04/14 08:58:01;;;;;;;5.63;3.03;;;13.70;50.80;;;;;;5105488;28;27435;-60
2021/04/14 09:01:31;;;;;;;3.65;2.50;;;13.00;51.60;;;;;;5105105;28;27378;-60
2021/04/14 09:04:36;;;;;;;4.68;2.42;;;12.40;52.30;;;;;;5105046;28;28002;-59
2021/04/14 09:07:47;;;;;;;8.02;2.67;;;11.90;53.00;;;;;;5105259;28;27487;-59
2021/04/14 09:10:42;;;;;;;3.67;2.20;;;11.40;53.30;;;;;;5104034;27;27366;-60
2021/04/14 09:13:38;;;;;;;2.38;2.10;;;11.10;54.90;;;;;;5105213;28;27423;-60
2021/04/14 09:16:36;;;;;;;6.63;1.88;;;10.90;56.10;;;;;;5104952;28;27352;-59
2021/04/14 09:19:44;;;;;;;4.45;2.53;;;10.70;56.70;;;;;;5104347;28;27358;-59
2021/04/14 09:22:58;;;;;;;4.38;2.00;;;10.50;57.30;;;;;;5101068;28;27511;-60
2021/04/14 09:25:49;;;;;;;3.35;1.80;;;10.40;57.70;;;;;;5105279;28;27414;-59
2021/04/14 09:28:54;;;;;;;4.07;2.20;;;10.40;57.30;;;;;;5086802;28;27455;-59
2021/04/14 09:32:07;;;;;;;6.20;1.98;;;10.30;56.70;;;;;;5104120;28;27417;-59
2021/04/14 09:35:19;;;;;;;2.70;1.67;;;10.20;56.90;;;;;;5105132;28;27363;-59
2021/04/14 09:38:31;;;;;;;4.00;2.28;;;10.10;57.10;;;;;;5104763;28;27404;-61
2021/04/14 09:41:57;;;;;;;3.97;2.00;;;10.10;55.80;;;;;;5101114;28;27493;-59
2021/04/14 09:45:21;;;;;;;5.03;2.17;;;10.00;56.80;;;;;;5100570;28;27427;-59
2021/04/14 09:48:38;;;;;;;4.85;2.38;;;9.90;57.30;;;;;;5103420;28;27448;-59
2021/04/14 09:51:55;;;;;;;3.05;2.03;;;9.90;56.90;;;;;;5100767;28;27292;-59
2021/04/14 09:55:32;;;;;;;3.75;2.35;;;9.90;56.70;;;;;;5104246;28;27910;-59
2021/04/14 09:58:43;;;;;;;2.85;1.85;;;9.90;57.00;;;;;;5104434;28;27455;-59
2021/04/14 10:01:36;;;;;;;3.85;2.22;;;9.80;56.30;;;;;;5104512;28;27503;-59
2021/04/14 10:04:46;;;;;;;3.03;1.92;;;9.80;55.80;;;;;;5103931;28;27430;-59
2021/04/14 10:07:57;;;;;;;3.53;2.10;;;9.80;55.90;;;;;;5104554;28;27386;-59
2021/04/14 10:11:04;;;;;;;6.18;1.98;;;9.80;56.00;;;;;;5103217;28;27478;-59
2021/04/14 10:14:16;;;;;;;5.05;2.20;;;9.70;55.80;;;;;;5103809;28;27431;-59
2021/04/14 10:17:55;;;;;;;3.10;1.90;;;9.70;55.20;;;;;;5103617;28;27439;-59
2021/04/14 10:21:13;;;;;;;3.25;1.45;;;9.70;56.30;;;;;;5103197;28;27980;-59
2021/04/14 10:24:24;;;;;;;3.35;1.80;;;9.80;55.60;;;;;;5107257;28;27340;-59
2021/04/14 10:27:20;;;;;;;3.70;1.70;;;9.70;56.30;;;;;;5107915;28;27348;-59
2021/04/14 10:30:20;;;;;;;4.20;1.80;;;9.80;57.90;;;;;;5093834;28;27475;-59
2021/04/14 10:33:19;;;;;;;5.07;1.80;;;9.90;57.60;;;;;;5108021;28;27995;-59
2021/04/14 10:36:29;;;;;;;3.40;2.15;;;10.00;58.20;;;;;;5093676;28;27418;-59
2021/04/14 10:39:34;;;;;;;4.18;1.90;;;10.10;56.70;;;;;;5107585;28;27386;-59
2021/04/14 10:42:42;;;;;;;5.18;1.85;;;10.10;56.60;;;;;;5107311;28;27553;-59
2021/04/14 10:45:59;;;;;;;2.22;1.50;;;10.10;56.50;;;;;;5107514;28;27839;-59
2021/04/14 10:49:05;;;;;;;4.82;2.00;;;10.10;55.20;;;;;;5107328;28;27418;-59
2021/04/14 10:52:24;;;;;;;5.40;2.55;;;10.10;55.00;;;;;;5107465;28;27493;-59
2021/04/14 10:56:01;;;;;;;3.53;2.13;;;10.00;54.50;;;;;;5107332;28;27321;-59
2021/04/14 10:59:48;;;;;;;4.35;2.33;;;10.00;54.60;;;;;;5106750;28;27958;-59
2021/04/14 11:03:34;;;;;;;8.23;2.10;;;10.00;55.00;;;;;;5107197;28;27396;-59
2021/04/14 11:07:27;;;;;;;6.10;2.13;;;10.10;55.30;;;;;;5105846;28;27454;-59
2021/04/14 11:10:58;;;;;;;4.25;1.85;;;10.10;55.50;;;;;;5107064;28;27393;-59
2021/04/14 11:14:43;;;;;;;2.00;1.73;;;10.30;55.60;;;;;;5107042;28;27495;-59
2021/04/14 11:18:40;;;;;;;5.95;1.88;;;10.40;55.10;;;;;;5106654;28;27393;-59
2021/04/14 11:22:06;;;;;;;2.58;1.65;;;10.50;54.50;;;;;;5106950;28;27503;-59
2021/04/14 11:25:33;;;;;;;4.07;1.88;;;10.50;54.40;;;;;;5102851;28;27478;-59
2021/04/14 11:28:46;;;;;;;4.03;1.83;;;10.60;54.60;;;;;;5106718;28;27352;-59
2021/04/14 11:32:03;;;;;;;4.65;1.88;;;10.60;54.50;;;;;;5107045;28;27497;-59
2021/04/14 11:35:13;;;;;;;5.93;1.83;;;10.60;54.80;;;;;;5105061;27;26930;-60
2021/04/14 11:38:33;;;;;;;3.22;1.60;;;10.60;54.60;;;;;;5105605;28;27455;-59
2021/04/14 11:42:11;;;;;;;2.60;1.70;;;10.70;54.80;;;;;;5106553;28;27528;-59
2021/04/14 11:45:29;;;;;;;4.60;1.40;;;10.70;53.80;;;;;;5106483;28;27481;-60
2021/04/14 11:48:37;;;;;;;3.20;2.00;;;10.80;54.50;;;;;;5103570;28;27316;-59
2021/04/14 11:51:34;;;;;;;3.00;1.50;;;10.80;53.90;;;;;;5106394;28;27426;-59
2021/04/14 11:55:28;;;;;;;3.83;2.03;;;10.80;53.20;;;;;;5106384;28;27469;-59
2021/04/14 11:58:50;;;;;;;5.53;2.38;;;10.80;53.90;;;;;;5106214;28;27476;-60
2021/04/14 12:02:25;;;;;;;8.63;1.83;;;10.80;52.90;;;;;;5106110;28;27397;-59
2021/04/14 12:05:33;;;;;;;4.22;2.33;;;10.80;52.80;;;;;;5105150;28;27328;-59
2021/04/14 12:08:39;;;;;;;2.70;1.42;;;10.70;53.10;;;;;;5105726;28;27469;-59
2021/04/14 12:11:45;;;;;;;3.42;1.70;;;10.70;54.50;;;;;;5106064;28;27411;-59
2021/04/14 12:14:50;;;;;;;4.05;1.80;;;10.80;54.40;;;;;;5106045;28;27407;-59
2021/04/14 12:17:57;;;;;;;4.00;1.67;;;10.90;54.10;;;;;;5105965;28;27392;-59
2021/04/14 12:20:58;;;;;;;6.35;1.73;;;10.90;54.90;;;;;;5105585;28;27379;-59
2021/04/14 12:24:00;;;;;;;3.45;1.70;;;11.00;54.40;;;;;;5105854;28;27444;-60
2021/04/14 12:27:12;;;;;;;2.60;1.63;;;11.10;54.50;;;;;;5106068;28;27421;-59
2021/04/14 12:30:20;;;;;;;4.35;1.73;;;11.10;54.40;;;;;;5104506;28;27336;-59
2021/04/14 12:33:30;;;;;;;4.55;1.90;;;11.20;53.40;;;;;;5105811;28;27965;-59
2021/04/14 12:36:57;;;;;;;3.85;1.90;;;11.20;53.20;;;;;;5105403;28;27514;-59
2021/04/14 12:40:23;;;;;;;3.47;1.48;;;11.20;53.10;;;;;;5105579;28;27424;-59
2021/04/14 12:43:24;;;;;;;3.03;1.77;;;11.30;52.90;;;;;;5101652;28;27324;-59
2021/04/14 12:46:29;;;;;;;3.50;2.03;;;11.30;52.70;;;;;;5104482;27;27417;-59
2021/04/14 12:49:43;;;;;;;2.50;1.73;;;11.40;50.70;;;;;;5106613;28;27458;-59
2021/04/14 12:53:09;;;;;;;4.43;2.10;;;11.40;51.40;;;;;;5106084;28;27419;-60
2021/04/14 12:56:18;;;;;;;5.30;1.67;;;11.40;51.70;;;;;;5104856;28;27411;-59
2021/04/14 12:59:46;;;;;;;3.15;1.30;;;11.50;50.90;;;;;;5104011;28;28028;-59
2021/04/14 13:02:42;;;;;;;2.78;1.17;;;11.50;51.30;;;;;;5105273;28;27331;-59
2021/04/14 13:05:38;;;;;;;2.20;1.35;;;11.60;51.90;;;;;;5102398;28;27415;-60
2021/04/14 13:09:05;;;;;;;5.00;1.77;;;11.70;52.10;;;;;;5105180;28;27496;-59
2021/04/14 13:12:12;;;;;;;1.67;1.13;;;11.90;52.50;;;;;;5102132;28;27427;-59
2021/04/14 13:15:41;;;;;;;2.10;1.30;;;12.00;53.00;;;;;;5104552;28;27316;-59
2021/04/14 13:19:02;;;;;;;5.93;1.50;;;12.20;53.50;;;;;;5104753;28;27402;-60
2021/04/14 13:22:01;;;;;;;3.28;1.60;;;12.40;53.10;;;;;;5105336;28;27317;-59
2021/04/14 13:25:09;;;;;;;3.75;1.45;;;12.50;53.40;;;;;;5104529;28;27969;-59
2021/04/14 13:28:09;;;;;;;2.92;1.70;;;12.60;53.10;;;;;;5104179;28;27515;-59
2021/04/14 13:31:23;;;;;;;7.63;1.67;;;12.70;53.00;;;;;;5101738;28;27389;-60
2021/04/14 13:34:09;;;;;;;3.42;1.38;;;12.80;53.10;;;;;;5101512;28;27388;-59
2021/04/14 13:37:07;;;;;;;2.78;1.63;;;12.90;52.80;;;;;;5086457;28;27829;-59
2021/04/14 13:40:01;;;;;;;2.35;1.60;;;13.00;52.60;;;;;;5104190;28;27482;-59
2021/04/14 13:43:04;;;;;;;3.53;1.85;;;13.00;52.60;;;;;;5104973;28;27498;-59
2021/04/14 13:46:56;;;;;;;4.47;1.73;;;13.00;51.70;;;;;;5104716;28;27375;-59
2021/04/14 13:50:30;;;;;;;3.53;1.58;;;13.00;52.50;;;;;;5104254;28;27470;-60
2021/04/14 13:53:49;;;;;;;4.82;2.15;;;12.90;52.70;;;;;;5101469;28;27426;-60
2021/04/14 13:56:50;;;;;;;3.10;1.67;;;13.00;52.40;;;;;;5100427;28;27014;-60
2021/04/14 13:59:54;;;;;;;3.45;1.45;;;13.00;51.80;;;;;;5103918;28;27431;-60
2021/04/14 14:02:41;;;;;;;5.03;1.70;;;12.90;52.10;;;;;;5103963;28;27481;-60
2021/04/14 14:05:49;;;;;;;3.05;1.30;;;12.90;52.70;;;;;;5104362;28;27428;-60
2021/04/14 14:09:06;;;;;;;3.30;1.95;;;12.90;52.00;;;;;;5103882;28;27332;-59
2021/04/14 14:12:16;;;;;;;4.43;1.95;;;12.90;52.30;;;;;;5104326;28;27405;-60
2021/04/14 14:15:43;;;;;;;6.65;1.40;;;13.00;52.70;;;;;;5104193;28;27526;-59
2021/04/14 14:18:54;;;;;;;2.63;1.50;;;13.00;53.00;;;;;;5100650;28;27363;-60
2021/04/14 14:22:27;;;;;;;2.08;1.75;;;13.20;52.50;;;;;;5104208;28;27355;-59
2021/04/14 14:25:32;;;;;;;4.43;1.50;;;13.30;52.20;;;;;;5104242;28;27485;-60
2021/04/14 14:28:34;;;;;;;1.63;1.20;;;13.40;51.50;;;;;;5104225;28;27977;-60
2021/04/14 14:31:21;;;;;;;2.67;1.48;;;13.40;52.40;;;;;;5103947;28;27336;-59
2021/04/14 14:34:27;;;;;;;3.17;1.60;;;13.50;53.10;;;;;;5071851;28;27340;-60
2021/04/14 14:37:37;;;;;;;4.32;1.63;;;13.60;54.10;;;;;;5103292;28;27384;-60
2021/04/14 14:40:47;;;;;;;5.55;2.15;;;13.60;53.20;;;;;;5102981;28;27844;-60
2021/04/14 14:43:56;;;;;;;3.38;1.23;;;13.60;53.00;;;;;;5102989;28;27423;-60
2021/04/14 14:46:43;;;;;;;2.92;1.35;;;13.60;52.30;;;;;;5103775;28;27396;-60
2021/04/14 14:49:49;;;;;;;1.98;1.00;;;13.50;51.50;;;;;;5102784;28;27566;-59
2021/04/14 14:53:17;;;;;;;2.65;1.40;;;13.50;52.00;;;;;;5103153;28;27320;-60
2021/04/14 14:56:40;;;;;;;2.63;1.60;;;13.50;51.70;;;;;;5100228;28;27457;-60
2021/04/14 14:59:37;;;;;;;2.42;1.38;;;13.50;52.00;;;;;;5101637;28;27648;-60
2021/04/14 15:02:49;;;;;;;4.13;1.48;;;13.50;51.90;;;;;;5103617;28;27478;-59
2021/04/14 15:06:21;;;;;;;2.88;1.40;;;13.40;52.20;;;;;;5102390;28;27552;-60
2021/04/14 15:09:46;;;;;;;2.85;1.77;;;13.40;52.00;;;;;;5105461;27;27462;-61
2021/04/14 15:12:59;;;;;;;2.25;1.15;;;13.30;52.00;;;;;;5106883;28;27482;-59
2021/04/14 15:16:14;;;;;;;2.92;2.65;;;13.20;52.60;;;;;;5106766;28;27418;-59
2021/04/14 15:19:00;;;;;;;2.33;1.67;;;13.20;52.10;;;;;;5105941;28;27906;-59
2021/04/14 15:22:17;;;;;;;2.85;1.83;;;13.20;52.00;;;;;;5103573;28;27473;-61
2021/04/14 15:25:23;;;;;;;2.70;2.10;;;13.10;51.90;;;;;;5107177;28;27361;-60
2021/04/14 15:28:30;;;;;;;2.05;1.83;;;13.10;52.00;;;;;;5106417;28;26967;-60
2021/04/14 15:31:35;;;;;;;2.97;2.15;;;13.10;52.30;;;;;;5106082;28;27410;-60
2021/04/14 15:35:01;;;;;;;3.53;1.70;;;13.00;51.80;;;;;;5106242;28;27360;-61
2021/04/14 15:38:29;;;;;;;3.25;1.75;;;12.90;51.50;;;;;;5103951;28;27404;-60
2021/04/14 15:41:54;;;;;;;3.70;2.15;;;12.80;51.30;;;;;;5104205;28;27454;-59
2021/04/14 15:44:59;;;;;;;1.83;1.63;;;12.70;51.20;;;;;;5106516;28;27406;-59
2021/04/14 15:48:26;;;;;;;4.90;2.17;;;12.50;52.00;;;;;;5106687;28;27494;-60
2021/04/14 15:51:56;;;;;;;2.70;1.85;;;12.50;52.10;;;;;;5106720;28;27403;-60
2021/04/14 15:55:27;;;;;;;2.75;2.03;;;12.40;52.50;;;;;;5103443;28;27415;-60
2021/04/14 15:58:35;;;;;;;2.13;1.58;;;12.40;51.40;;;;;;5106040;28;27393;-59
2021/04/14 16:02:05;;;;;;;2.53;1.98;;;12.40;51.80;;;;;;5106569;28;27324;-59
2021/04/14 16:05:24;;;;;;;3.13;2.08;;;12.40;51.00;;;;;;5103388;28;27353;-60
2021/04/14 16:08:39;;;;;;;4.13;2.63;;;12.30;51.10;;;;;;5102067;28;27405;-59
2021/04/14 16:11:46;;;;;;;3.92;2.17;;;12.20;50.80;;;;;;5105715;28;27403;-60
2021/04/14 16:15:01;;;;;;;5.75;2.30;;;12.10;51.80;;;;;;5105624;28;27566;-60
2021/04/14 16:18:08;;;;;;;3.22;2.50;;;12.00;52.60;;;;;;5102829;28;27394;-60
2021/04/14 16:21:33;;;;;;;3.03;1.90;;;11.80;53.30;;;;;;5105741;27;27419;-59
2021/04/14 16:24:44;;;;;;;3.88;1.90;;;11.80;53.40;;;;;;5105789;28;27460;-59
2021/04/14 16:27:59;;;;;;;1.58;1.48;;;11.70;53.10;;;;;;5105840;28;27504;-59
2021/04/14 16:31:04;;;;;;;3.25;2.30;;;11.60;53.40;;;;;;5105542;28;27367;-59
2021/04/14 16:34:09;;;;;;;2.00;1.63;;;11.50;53.10;;;;;;5105834;28;27395;-60
2021/04/14 16:37:15;;;;;;;2.22;2.00;;;11.50;52.90;;;;;;5105574;28;27374;-61
2021/04/14 16:40:20;;;;;;;2.65;2.15;;;11.50;53.10;;;;;;5102656;28;27312;-60
2021/04/14 16:43:44;;;;;;;2.22;1.98;;;11.50;52.60;;;;;;5104647;28;27360;-59
2021/04/14 16:47:00;;;;;;;5.15;2.00;;;11.50;52.90;;;;;;5105637;28;27338;-59
2021/04/14 16:50:03;;;;;;;2.53;2.10;;;11.40;53.20;;;;;;5105540;28;28035;-59
2021/04/14 16:53:04;;;;;;;5.38;2.10;;;11.30;54.20;;;;;;5105790;28;27366;-59